sensor_id;sensor_type;location;lat;lon;timestamp;temperature;humidity
46754;DHT22;32500;50.620;3.400;2023-02-26T00:01:03;13.90;61.00
46754;DHT22;32500;50.620;3.400;2023-02-26T00:03:36;13.90;61.20
46754;DHT22;32500;50.620;3.400;2023-02-26T00:06:01;13.90;61.20
46754;DHT22;32500;50.620;3.400;2023-02-26T00:08:27;13.90;61.00
46754;DHT22;32500;50.620;3.400;2023-02-26T00:10:53;13.80;61.20
46754;DHT22;32500;50.620;3.400;2023-02-26T00:13:19;13.80;61.20
46754;DHT22;32500;50.620;3.400;2023-02-26T00:15:47;13.80;61.10
46754;DHT22;32500;50.620;3.400;2023-02-26T00:18:14;13.80;61.00
46754;DHT22;32500;50.620;3.400;2023-02-26T00:20:41;13.80;61.00
46754;DHT22;32500;50.620;3.400;2023-02-26T00:23:11;13.80;61.00
46754;DHT22;32500;50.620;3.400;2023-02-26T00:25:39;13.70;60.90
46754;DHT22;32500;50.620;3.400;2023-02-26T00:28:05;13.70;61.00
46754;DHT22;32500;50.620;3.400;2023-02-26T00:30:31;13.70;61.10
46754;DHT22;32500;50.620;3.400;2023-02-26T00:32:57;13.70;61.00
46754;DHT22;32500;50.620;3.400;2023-02-26T00:35:23;13.70;60.90
46754;DHT22;32500;50.620;3.400;2023-02-26T00:40:44;13.60;61.00
46754;DHT22;32500;50.620;3.400;2023-02-26T00:43:21;13.60;61.00
46754;DHT22;32500;50.620;3.400;2023-02-26T00:48:31;13.60;60.90
46754;DHT22;32500;50.620;3.400;2023-02-26T00:54:12;13.50;60.90
46754;DHT22;32500;50.620;3.400;2023-02-26T00:56:41;13.60;60.90
46754;DHT22;32500;50.620;3.400;2023-02-26T00:59:06;13.50;60.50
46754;DHT22;32500;50.620;3.400;2023-02-26T01:01:32;13.50;60.70
46754;DHT22;32500;50.620;3.400;2023-02-26T01:03:58;13.50;60.70
46754;DHT22;32500;50.620;3.400;2023-02-26T01:06:27;13.50;60.70
46754;DHT22;32500;50.620;3.400;2023-02-26T01:08:55;13.50;60.80
46754;DHT22;32500;50.620;3.400;2023-02-26T01:11:23;13.50;60.80
46754;DHT22;32500;50.620;3.400;2023-02-26T01:13:49;13.40;60.90
46754;DHT22;32500;50.620;3.400;2023-02-26T01:16:20;13.40;61.00
46754;DHT22;32500;50.620;3.400;2023-02-26T01:19:01;13.50;61.00
46754;DHT22;32500;50.620;3.400;2023-02-26T01:21:37;13.50;60.90
46754;DHT22;32500;50.620;3.400;2023-02-26T01:24:10;13.40;60.60
46754;DHT22;32500;50.620;3.400;2023-02-26T01:26:39;13.40;60.30
46754;DHT22;32500;50.620;3.400;2023-02-26T01:29:05;13.40;60.50
46754;DHT22;32500;50.620;3.400;2023-02-26T01:35:36;13.40;60.70
46754;DHT22;32500;50.620;3.400;2023-02-26T01:46:52;13.30;60.70
46754;DHT22;32500;50.620;3.400;2023-02-26T01:49:19;13.30;60.80
46754;DHT22;32500;50.620;3.400;2023-02-26T01:51:57;13.30;60.60
46754;DHT22;32500;50.620;3.400;2023-02-26T01:54:27;13.20;61.60
46754;DHT22;32500;50.620;3.400;2023-02-26T01:57:03;13.20;60.90
46754;DHT22;32500;50.620;3.400;2023-02-26T01:59:38;13.20;61.00
46754;DHT22;32500;50.620;3.400;2023-02-26T02:02:07;13.20;61.00
46754;DHT22;32500;50.620;3.400;2023-02-26T02:04:35;13.20;60.80
46754;DHT22;32500;50.620;3.400;2023-02-26T02:07:03;13.20;61.00
46754;DHT22;32500;50.620;3.400;2023-02-26T02:09:29;13.20;60.90
46754;DHT22;32500;50.620;3.400;2023-02-26T02:14:58;13.20;60.60
46754;DHT22;32500;50.620;3.400;2023-02-26T02:30:57;13.10;60.70
46754;DHT22;32500;50.620;3.400;2023-02-26T02:33:32;13.10;60.80
46754;DHT22;32500;50.620;3.400;2023-02-26T02:36:04;13.00;60.80
46754;DHT22;32500;50.620;3.400;2023-02-26T02:38:36;13.10;61.10
46754;DHT22;32500;50.620;3.400;2023-02-26T02:41:46;13.10;60.90
46754;DHT22;32500;50.620;3.400;2023-02-26T02:44:07;13.10;60.70
46754;DHT22;32500;50.620;3.400;2023-02-26T02:46:37;13.20;60.90
46754;DHT22;32500;50.620;3.400;2023-02-26T02:49:10;13.10;60.70
46754;DHT22;32500;50.620;3.400;2023-02-26T02:51:46;13.10;60.90
46754;DHT22;32500;50.620;3.400;2023-02-26T02:54:19;13.10;61.00
46754;DHT22;32500;50.620;3.400;2023-02-26T02:56:50;13.10;60.60
46754;DHT22;32500;50.620;3.400;2023-02-26T03:04:38;13.20;60.70
46754;DHT22;32500;50.620;3.400;2023-02-26T03:07:05;13.20;60.60
46754;DHT22;32500;50.620;3.400;2023-02-26T03:09:31;13.20;60.70
46754;DHT22;32500;50.620;3.400;2023-02-26T03:11:57;13.20;60.60
46754;DHT22;32500;50.620;3.400;2023-02-26T03:14:23;13.30;60.50
46754;DHT22;32500;50.620;3.400;2023-02-26T03:19:43;13.20;60.40
46754;DHT22;32500;50.620;3.400;2023-02-26T03:25:18;13.20;60.60
46754;DHT22;32500;50.620;3.400;2023-02-26T03:31:12;13.20;60.60
46754;DHT22;32500;50.620;3.400;2023-02-26T03:36:19;13.20;60.50
46754;DHT22;32500;50.620;3.400;2023-02-26T03:38:52;13.20;60.60
46754;DHT22;32500;50.620;3.400;2023-02-26T03:41:51;13.20;60.80
46754;DHT22;32500;50.620;3.400;2023-02-26T03:45:03;13.20;61.10
46754;DHT22;32500;50.620;3.400;2023-02-26T03:47:12;13.20;61.00
46754;DHT22;32500;50.620;3.400;2023-02-26T03:52:08;13.30;60.70
46754;DHT22;32500;50.620;3.400;2023-02-26T03:54:41;13.40;60.80
46754;DHT22;32500;50.620;3.400;2023-02-26T03:57:08;13.40;60.50
46754;DHT22;32500;50.620;3.400;2023-02-26T03:59:34;13.40;60.40
46754;DHT22;32500;50.620;3.400;2023-02-26T04:02:04;13.50;60.30
46754;DHT22;32500;50.620;3.400;2023-02-26T04:04:37;13.50;60.40
46754;DHT22;32500;50.620;3.400;2023-02-26T04:07:11;13.50;60.30
46754;DHT22;32500;50.620;3.400;2023-02-26T04:09:43;13.60;60.10
46754;DHT22;32500;50.620;3.400;2023-02-26T04:12:10;13.60;60.30
46754;DHT22;32500;50.620;3.400;2023-02-26T04:14:36;13.50;59.90
46754;DHT22;32500;50.620;3.400;2023-02-26T04:17:02;13.60;60.00
46754;DHT22;32500;50.620;3.400;2023-02-26T04:19:27;13.60;60.20
46754;DHT22;32500;50.620;3.400;2023-02-26T04:21:53;13.60;59.90
46754;DHT22;32500;50.620;3.400;2023-02-26T04:24:18;13.70;59.90
46754;DHT22;32500;50.620;3.400;2023-02-26T04:26:44;13.60;59.80
46754;DHT22;32500;50.620;3.400;2023-02-26T04:29:10;13.70;59.80
46754;DHT22;32500;50.620;3.400;2023-02-26T04:31:35;13.70;59.90
46754;DHT22;32500;50.620;3.400;2023-02-26T04:34:01;13.70;59.80
46754;DHT22;32500;50.620;3.400;2023-02-26T04:36:27;13.70;59.80
46754;DHT22;32500;50.620;3.400;2023-02-26T04:38:53;13.70;59.70
46754;DHT22;32500;50.620;3.400;2023-02-26T04:41:19;13.70;59.80
46754;DHT22;32500;50.620;3.400;2023-02-26T04:43:45;13.80;59.80
46754;DHT22;32500;50.620;3.400;2023-02-26T04:46:10;13.80;59.70
46754;DHT22;32500;50.620;3.400;2023-02-26T04:48:36;13.80;59.50
46754;DHT22;32500;50.620;3.400;2023-02-26T04:51:02;13.80;59.40
46754;DHT22;32500;50.620;3.400;2023-02-26T04:53:27;13.80;59.30
46754;DHT22;32500;50.620;3.400;2023-02-26T04:55:53;13.80;59.60
46754;DHT22;32500;50.620;3.400;2023-02-26T04:58:19;13.80;59.50
46754;DHT22;32500;50.620;3.400;2023-02-26T05:00:48;13.80;59.30
46754;DHT22;32500;50.620;3.400;2023-02-26T05:03:14;13.90;59.40
46754;DHT22;32500;50.620;3.400;2023-02-26T05:05:40;13.90;59.20
46754;DHT22;32500;50.620;3.400;2023-02-26T05:08:06;13.80;59.50
46754;DHT22;32500;50.620;3.400;2023-02-26T05:10:32;13.80;59.50
46754;DHT22;32500;50.620;3.400;2023-02-26T05:12:57;13.80;59.40
46754;DHT22;32500;50.620;3.400;2023-02-26T05:15:23;13.90;59.60
46754;DHT22;32500;50.620;3.400;2023-02-26T05:17:48;13.90;59.50
46754;DHT22;32500;50.620;3.400;2023-02-26T05:20:14;13.90;59.30
46754;DHT22;32500;50.620;3.400;2023-02-26T05:22:40;13.80;59.50
46754;DHT22;32500;50.620;3.400;2023-02-26T05:25:07;13.90;59.40
46754;DHT22;32500;50.620;3.400;2023-02-26T05:27:33;13.90;59.50
46754;DHT22;32500;50.620;3.400;2023-02-26T05:29:59;13.80;59.40
46754;DHT22;32500;50.620;3.400;2023-02-26T05:32:25;13.80;59.10
46754;DHT22;32500;50.620;3.400;2023-02-26T05:34:50;13.80;59.20
46754;DHT22;32500;50.620;3.400;2023-02-26T05:37:16;13.80;59.30
46754;DHT22;32500;50.620;3.400;2023-02-26T05:39:42;13.80;59.50
46754;DHT22;32500;50.620;3.400;2023-02-26T05:42:08;13.90;59.50
46754;DHT22;32500;50.620;3.400;2023-02-26T05:44:34;13.90;59.20
46754;DHT22;32500;50.620;3.400;2023-02-26T05:47:02;13.80;59.30
46754;DHT22;32500;50.620;3.400;2023-02-26T05:49:28;13.80;59.20
46754;DHT22;32500;50.620;3.400;2023-02-26T05:51:53;13.80;59.40
46754;DHT22;32500;50.620;3.400;2023-02-26T05:54:19;13.80;59.40
46754;DHT22;32500;50.620;3.400;2023-02-26T05:56:45;13.80;59.30
46754;DHT22;32500;50.620;3.400;2023-02-26T05:59:10;13.80;59.20
46754;DHT22;32500;50.620;3.400;2023-02-26T06:01:36;13.80;59.30
46754;DHT22;32500;50.620;3.400;2023-02-26T06:04:04;13.80;59.20
46754;DHT22;32500;50.620;3.400;2023-02-26T06:06:29;13.80;59.20
46754;DHT22;32500;50.620;3.400;2023-02-26T06:08:55;13.80;59.20
46754;DHT22;32500;50.620;3.400;2023-02-26T06:11:21;13.80;59.30
46754;DHT22;32500;50.620;3.400;2023-02-26T06:13:47;13.80;59.30
46754;DHT22;32500;50.620;3.400;2023-02-26T06:16:13;13.80;59.20
46754;DHT22;32500;50.620;3.400;2023-02-26T06:18:39;13.80;59.40
46754;DHT22;32500;50.620;3.400;2023-02-26T06:21:04;13.80;59.30
46754;DHT22;32500;50.620;3.400;2023-02-26T06:23:30;13.80;59.20
46754;DHT22;32500;50.620;3.400;2023-02-26T06:25:56;13.70;59.10
46754;DHT22;32500;50.620;3.400;2023-02-26T06:28:24;13.60;59.30
46754;DHT22;32500;50.620;3.400;2023-02-26T06:30:51;13.70;59.30
46754;DHT22;32500;50.620;3.400;2023-02-26T06:33:18;13.70;59.30
46754;DHT22;32500;50.620;3.400;2023-02-26T06:35:44;13.70;59.00
46754;DHT22;32500;50.620;3.400;2023-02-26T06:38:09;13.60;58.80
46754;DHT22;32500;50.620;3.400;2023-02-26T06:40:35;13.60;59.30
46754;DHT22;32500;50.620;3.400;2023-02-26T06:43:01;13.70;59.00
46754;DHT22;32500;50.620;3.400;2023-02-26T06:45:27;13.70;59.60
46754;DHT22;32500;50.620;3.400;2023-02-26T06:47:53;13.70;59.70
46754;DHT22;32500;50.620;3.400;2023-02-26T06:50:19;13.60;59.60
46754;DHT22;32500;50.620;3.400;2023-02-26T06:52:45;13.60;59.70
46754;DHT22;32500;50.620;3.400;2023-02-26T06:55:11;13.70;60.20
46754;DHT22;32500;50.620;3.400;2023-02-26T06:57:37;13.70;61.20
46754;DHT22;32500;50.620;3.400;2023-02-26T07:00:04;13.70;61.10
46754;DHT22;32500;50.620;3.400;2023-02-26T07:02:30;13.70;61.10
46754;DHT22;32500;50.620;3.400;2023-02-26T07:04:56;13.70;61.20
46754;DHT22;32500;50.620;3.400;2023-02-26T07:07:21;13.70;62.20
46754;DHT22;32500;50.620;3.400;2023-02-26T07:09:47;13.70;63.30
46754;DHT22;32500;50.620;3.400;2023-02-26T07:12:13;13.70;62.30
46754;DHT22;32500;50.620;3.400;2023-02-26T07:14:39;13.70;62.50
46754;DHT22;32500;50.620;3.400;2023-02-26T07:17:07;13.60;62.80
46754;DHT22;32500;50.620;3.400;2023-02-26T07:19:33;13.40;62.80
46754;DHT22;32500;50.620;3.400;2023-02-26T07:21:58;13.40;63.40
46754;DHT22;32500;50.620;3.400;2023-02-26T07:24:24;13.40;62.90
46754;DHT22;32500;50.620;3.400;2023-02-26T07:26:50;13.30;63.00
46754;DHT22;32500;50.620;3.400;2023-02-26T07:29:15;13.30;63.30
46754;DHT22;32500;50.620;3.400;2023-02-26T07:31:41;13.30;62.90
46754;DHT22;32500;50.620;3.400;2023-02-26T07:34:07;13.20;62.90
46754;DHT22;32500;50.620;3.400;2023-02-26T07:36:32;13.30;62.90
46754;DHT22;32500;50.620;3.400;2023-02-26T07:38:58;13.20;62.70
46754;DHT22;32500;50.620;3.400;2023-02-26T07:41:24;13.20;62.60
46754;DHT22;32500;50.620;3.400;2023-02-26T07:43:49;13.20;62.90
46754;DHT22;32500;50.620;3.400;2023-02-26T07:46:15;13.20;62.70
46754;DHT22;32500;50.620;3.400;2023-02-26T07:48:41;13.20;62.40
46754;DHT22;32500;50.620;3.400;2023-02-26T07:51:07;13.20;62.20
46754;DHT22;32500;50.620;3.400;2023-02-26T07:53:33;13.10;62.60
46754;DHT22;32500;50.620;3.400;2023-02-26T07:55:59;13.10;62.40
46754;DHT22;32500;50.620;3.400;2023-02-26T07:58:25;13.20;62.30
46754;DHT22;32500;50.620;3.400;2023-02-26T08:00:50;13.20;62.20
46754;DHT22;32500;50.620;3.400;2023-02-26T08:03:17;13.10;62.20
46754;DHT22;32500;50.620;3.400;2023-02-26T08:05:43;13.20;62.20
46754;DHT22;32500;50.620;3.400;2023-02-26T08:08:09;13.10;62.00
46754;DHT22;32500;50.620;3.400;2023-02-26T08:10:34;13.20;62.00
46754;DHT22;32500;50.620;3.400;2023-02-26T08:13:00;13.10;62.10
46754;DHT22;32500;50.620;3.400;2023-02-26T08:15:26;13.10;62.00
46754;DHT22;32500;50.620;3.400;2023-02-26T08:17:52;13.10;62.00
46754;DHT22;32500;50.620;3.400;2023-02-26T08:20:18;13.20;62.00
46754;DHT22;32500;50.620;3.400;2023-02-26T08:22:44;13.10;61.80
46754;DHT22;32500;50.620;3.400;2023-02-26T08:25:09;13.20;62.10
46754;DHT22;32500;50.620;3.400;2023-02-26T08:27:35;13.10;61.60
46754;DHT22;32500;50.620;3.400;2023-02-26T08:30:02;13.10;61.90
46754;DHT22;32500;50.620;3.400;2023-02-26T08:32:28;13.00;62.00
46754;DHT22;32500;50.620;3.400;2023-02-26T08:34:53;13.10;62.10
46754;DHT22;32500;50.620;3.400;2023-02-26T08:37:20;13.10;62.00
46754;DHT22;32500;50.620;3.400;2023-02-26T08:39:49;13.20;61.80
46754;DHT22;32500;50.620;3.400;2023-02-26T08:42:14;13.10;61.60
46754;DHT22;32500;50.620;3.400;2023-02-26T08:44:42;13.20;61.80
46754;DHT22;32500;50.620;3.400;2023-02-26T08:47:08;13.20;61.90
46754;DHT22;32500;50.620;3.400;2023-02-26T08:49:33;13.20;62.00
46754;DHT22;32500;50.620;3.400;2023-02-26T08:51:59;13.20;61.50
46754;DHT22;32500;50.620;3.400;2023-02-26T08:54:25;13.20;61.70
46754;DHT22;32500;50.620;3.400;2023-02-26T08:56:51;13.20;61.30
46754;DHT22;32500;50.620;3.400;2023-02-26T08:59:20;13.10;61.70
46754;DHT22;32500;50.620;3.400;2023-02-26T09:01:46;13.20;61.70
46754;DHT22;32500;50.620;3.400;2023-02-26T09:04:11;13.10;61.60
46754;DHT22;32500;50.620;3.400;2023-02-26T09:06:37;13.20;61.50
46754;DHT22;32500;50.620;3.400;2023-02-26T09:09:03;13.20;61.40
46754;DHT22;32500;50.620;3.400;2023-02-26T09:11:29;13.20;61.40
46754;DHT22;32500;50.620;3.400;2023-02-26T09:13:55;13.20;61.60
46754;DHT22;32500;50.620;3.400;2023-02-26T09:16:23;13.20;61.70
46754;DHT22;32500;50.620;3.400;2023-02-26T09:18:49;13.30;61.60
46754;DHT22;32500;50.620;3.400;2023-02-26T09:21:16;13.20;61.50
46754;DHT22;32500;50.620;3.400;2023-02-26T09:23:42;13.30;61.40
46754;DHT22;32500;50.620;3.400;2023-02-26T09:26:07;13.30;61.40
46754;DHT22;32500;50.620;3.400;2023-02-26T09:28:34;13.20;61.00
46754;DHT22;32500;50.620;3.400;2023-02-26T09:31:00;13.30;61.20
46754;DHT22;32500;50.620;3.400;2023-02-26T09:33:25;13.30;61.40
46754;DHT22;32500;50.620;3.400;2023-02-26T09:35:51;13.40;61.20
46754;DHT22;32500;50.620;3.400;2023-02-26T09:38:18;13.30;61.10
46754;DHT22;32500;50.620;3.400;2023-02-26T09:40:49;13.30;61.10
46754;DHT22;32500;50.620;3.400;2023-02-26T09:46:03;13.30;60.60
46754;DHT22;32500;50.620;3.400;2023-02-26T09:48:30;13.30;60.90
46754;DHT22;32500;50.620;3.400;2023-02-26T09:50:58;13.40;60.90
46754;DHT22;32500;50.620;3.400;2023-02-26T09:53:36;13.40;61.20
46754;DHT22;32500;50.620;3.400;2023-02-26T09:56:12;13.40;60.80
46754;DHT22;32500;50.620;3.400;2023-02-26T09:58:40;13.50;60.70
46754;DHT22;32500;50.620;3.400;2023-02-26T10:06:29;13.40;60.40
46754;DHT22;32500;50.620;3.400;2023-02-26T10:12:07;13.50;60.40
46754;DHT22;32500;50.620;3.400;2023-02-26T10:19:51;13.50;60.00
46754;DHT22;32500;50.620;3.400;2023-02-26T10:22:28;13.50;60.40
46754;DHT22;32500;50.620;3.400;2023-02-26T10:25:18;13.60;60.30
46754;DHT22;32500;50.620;3.400;2023-02-26T10:28:15;13.60;60.20
46754;DHT22;32500;50.620;3.400;2023-02-26T10:36:26;13.60;60.50
46754;DHT22;32500;50.620;3.400;2023-02-26T10:38:57;13.60;59.90
46754;DHT22;32500;50.620;3.400;2023-02-26T10:41:27;13.70;60.20
46754;DHT22;32500;50.620;3.400;2023-02-26T10:44:25;13.60;59.90
46754;DHT22;32500;50.620;3.400;2023-02-26T10:52:18;13.60;59.80
46754;DHT22;32500;50.620;3.400;2023-02-26T10:57:36;13.70;59.70
46754;DHT22;32500;50.620;3.400;2023-02-26T11:00:04;13.80;59.40
46754;DHT22;32500;50.620;3.400;2023-02-26T11:02:39;13.80;59.40
46754;DHT22;32500;50.620;3.400;2023-02-26T11:05:12;13.90;59.20
46754;DHT22;32500;50.620;3.400;2023-02-26T11:07:40;13.80;59.10
46754;DHT22;32500;50.620;3.400;2023-02-26T11:10:15;13.80;59.20
46754;DHT22;32500;50.620;3.400;2023-02-26T11:12:41;13.80;59.40
46754;DHT22;32500;50.620;3.400;2023-02-26T11:15:12;13.90;59.00
46754;DHT22;32500;50.620;3.400;2023-02-26T11:17:38;13.80;59.10
46754;DHT22;32500;50.620;3.400;2023-02-26T11:20:24;13.90;58.90
46754;DHT22;32500;50.620;3.400;2023-02-26T11:22:52;13.80;58.70
46754;DHT22;32500;50.620;3.400;2023-02-26T11:25:23;13.80;58.80
46754;DHT22;32500;50.620;3.400;2023-02-26T11:27:54;13.80;58.60
46754;DHT22;32500;50.620;3.400;2023-02-26T11:30:25;13.90;58.80
46754;DHT22;32500;50.620;3.400;2023-02-26T11:32:52;14.00;58.80
46754;DHT22;32500;50.620;3.400;2023-02-26T11:35:21;14.00;58.50
46754;DHT22;32500;50.620;3.400;2023-02-26T11:37:52;14.00;58.50
46754;DHT22;32500;50.620;3.400;2023-02-26T11:40:40;14.00;58.40
46754;DHT22;32500;50.620;3.400;2023-02-26T11:43:10;14.00;58.50
46754;DHT22;32500;50.620;3.400;2023-02-26T11:45:42;14.00;58.20
46754;DHT22;32500;50.620;3.400;2023-02-26T11:48:18;14.00;58.40
46754;DHT22;32500;50.620;3.400;2023-02-26T11:50:48;14.00;58.50
46754;DHT22;32500;50.620;3.400;2023-02-26T11:55:46;14.10;58.20
46754;DHT22;32500;50.620;3.400;2023-02-26T11:58:20;14.20;58.30
46754;DHT22;32500;50.620;3.400;2023-02-26T12:00:46;14.20;57.90
46754;DHT22;32500;50.620;3.400;2023-02-26T12:03:27;14.30;57.50
46754;DHT22;32500;50.620;3.400;2023-02-26T12:05:57;14.30;57.60
46754;DHT22;32500;50.620;3.400;2023-02-26T12:08:36;14.40;57.60
46754;DHT22;32500;50.620;3.400;2023-02-26T12:14:15;14.40;57.50
46754;DHT22;32500;50.620;3.400;2023-02-26T12:19:21;14.40;57.30
46754;DHT22;32500;50.620;3.400;2023-02-26T12:24:53;14.50;58.00
46754;DHT22;32500;50.620;3.400;2023-02-26T12:50:42;14.50;57.00
46754;DHT22;32500;50.620;3.400;2023-02-26T12:53:32;14.50;57.00
46754;DHT22;32500;50.620;3.400;2023-02-26T13:00:14;14.40;56.70
46754;DHT22;32500;50.620;3.400;2023-02-26T13:11:03;14.50;57.00
46754;DHT22;32500;50.620;3.400;2023-02-26T13:13:45;14.50;57.10
46754;DHT22;32500;50.620;3.400;2023-02-26T13:16:21;14.50;57.10
46754;DHT22;32500;50.620;3.400;2023-02-26T13:21:29;14.40;56.90
46754;DHT22;32500;50.620;3.400;2023-02-26T13:24:01;14.40;57.20
46754;DHT22;32500;50.620;3.400;2023-02-26T13:26:31;14.50;57.30
46754;DHT22;32500;50.620;3.400;2023-02-26T13:29:20;14.50;57.30
46754;DHT22;32500;50.620;3.400;2023-02-26T13:32:13;14.50;56.90
46754;DHT22;32500;50.620;3.400;2023-02-26T13:35:04;14.50;56.90
46754;DHT22;32500;50.620;3.400;2023-02-26T13:37:43;14.30;57.00
46754;DHT22;32500;50.620;3.400;2023-02-26T13:42:52;14.30;57.40
46754;DHT22;32500;50.620;3.400;2023-02-26T13:48:57;14.20;57.50
46754;DHT22;32500;50.620;3.400;2023-02-26T13:51:36;14.30;57.20
46754;DHT22;32500;50.620;3.400;2023-02-26T13:59:46;14.20;57.30
46754;DHT22;32500;50.620;3.400;2023-02-26T14:04:57;14.30;57.30
46754;DHT22;32500;50.620;3.400;2023-02-26T14:10:26;14.40;57.00
46754;DHT22;32500;50.620;3.400;2023-02-26T14:13:14;14.30;57.20
46754;DHT22;32500;50.620;3.400;2023-02-26T14:26:35;14.40;56.90
46754;DHT22;32500;50.620;3.400;2023-02-26T14:34:33;14.40;56.80
46754;DHT22;32500;50.620;3.400;2023-02-26T14:37:04;14.40;57.00
46754;DHT22;32500;50.620;3.400;2023-02-26T14:39:56;14.40;56.90
46754;DHT22;32500;50.620;3.400;2023-02-26T14:42:40;14.40;56.80
46754;DHT22;32500;50.620;3.400;2023-02-26T14:47:40;14.40;56.70
46754;DHT22;32500;50.620;3.400;2023-02-26T14:50:07;14.40;56.90
46754;DHT22;32500;50.620;3.400;2023-02-26T14:55:56;14.40;57.00
46754;DHT22;32500;50.620;3.400;2023-02-26T14:58:47;14.50;56.90
46754;DHT22;32500;50.620;3.400;2023-02-26T15:01:46;14.50;56.70
46754;DHT22;32500;50.620;3.400;2023-02-26T15:09:53;14.40;57.30
46754;DHT22;32500;50.620;3.400;2023-02-26T15:15:25;14.50;57.40
46754;DHT22;32500;50.620;3.400;2023-02-26T15:23:52;14.30;57.30
46754;DHT22;32500;50.620;3.400;2023-02-26T15:26:27;14.30;57.30
46754;DHT22;32500;50.620;3.400;2023-02-26T15:28:53;14.30;57.40
46754;DHT22;32500;50.620;3.400;2023-02-26T15:31:27;14.40;57.50
46754;DHT22;32500;50.620;3.400;2023-02-26T15:33:55;14.50;57.20
46754;DHT22;32500;50.620;3.400;2023-02-26T15:36:21;14.60;57.10
46754;DHT22;32500;50.620;3.400;2023-02-26T15:38:53;14.70;56.40
46754;DHT22;32500;50.620;3.400;2023-02-26T15:41:19;14.80;56.20
46754;DHT22;32500;50.620;3.400;2023-02-26T15:43:49;14.80;56.60
46754;DHT22;32500;50.620;3.400;2023-02-26T15:46:15;14.90;56.20
46754;DHT22;32500;50.620;3.400;2023-02-26T15:48:41;15.00;55.90
46754;DHT22;32500;50.620;3.400;2023-02-26T15:51:11;15.00;55.50
46754;DHT22;32500;50.620;3.400;2023-02-26T15:53:47;15.00;55.40
46754;DHT22;32500;50.620;3.400;2023-02-26T15:56:22;15.00;55.20
46754;DHT22;32500;50.620;3.400;2023-02-26T15:58:53;15.00;55.30
46754;DHT22;32500;50.620;3.400;2023-02-26T16:01:25;15.00;55.20
46754;DHT22;32500;50.620;3.400;2023-02-26T16:03:59;15.00;55.50
46754;DHT22;32500;50.620;3.400;2023-02-26T16:08:53;15.00;55.40
46754;DHT22;32500;50.620;3.400;2023-02-26T16:11:19;15.00;55.10
46754;DHT22;32500;50.620;3.400;2023-02-26T16:13:49;15.00;55.00
46754;DHT22;32500;50.620;3.400;2023-02-26T16:16:28;15.00;55.10
46754;DHT22;32500;50.620;3.400;2023-02-26T16:18:54;15.00;55.20
46754;DHT22;32500;50.620;3.400;2023-02-26T16:21:30;14.90;55.20
46754;DHT22;32500;50.620;3.400;2023-02-26T16:23:57;14.80;55.50
46754;DHT22;32500;50.620;3.400;2023-02-26T16:26:31;14.80;55.90
46754;DHT22;32500;50.620;3.400;2023-02-26T16:29:02;14.70;56.00
46754;DHT22;32500;50.620;3.400;2023-02-26T16:31:30;14.70;56.10
46754;DHT22;32500;50.620;3.400;2023-02-26T16:34:01;14.70;56.20
46754;DHT22;32500;50.620;3.400;2023-02-26T16:36:35;14.50;56.30
46754;DHT22;32500;50.620;3.400;2023-02-26T16:39:13;14.40;56.60
46754;DHT22;32500;50.620;3.400;2023-02-26T16:41:47;14.40;56.80
46754;DHT22;32500;50.620;3.400;2023-02-26T16:44:39;14.20;57.10
46754;DHT22;32500;50.620;3.400;2023-02-26T16:47:08;14.10;57.50
46754;DHT22;32500;50.620;3.400;2023-02-26T16:49:36;14.00;57.80
46754;DHT22;32500;50.620;3.400;2023-02-26T16:52:04;13.90;57.90
46754;DHT22;32500;50.620;3.400;2023-02-26T16:54:39;13.90;58.20
46754;DHT22;32500;50.620;3.400;2023-02-26T16:57:14;13.80;58.10
46754;DHT22;32500;50.620;3.400;2023-02-26T16:59:41;13.70;58.50
46754;DHT22;32500;50.620;3.400;2023-02-26T17:02:14;13.70;58.60
46754;DHT22;32500;50.620;3.400;2023-02-26T17:04:45;13.60;58.80
46754;DHT22;32500;50.620;3.400;2023-02-26T17:07:35;13.60;59.00
46754;DHT22;32500;50.620;3.400;2023-02-26T17:10:21;13.50;59.00
46754;DHT22;32500;50.620;3.400;2023-02-26T17:12:49;13.40;59.10
46754;DHT22;32500;50.620;3.400;2023-02-26T17:15:20;13.50;59.30
46754;DHT22;32500;50.620;3.400;2023-02-26T17:17:51;13.40;59.40
46754;DHT22;32500;50.620;3.400;2023-02-26T17:20:21;13.30;59.40
46754;DHT22;32500;50.620;3.400;2023-02-26T17:22:48;13.30;59.50
46754;DHT22;32500;50.620;3.400;2023-02-26T17:25:16;13.30;59.70
46754;DHT22;32500;50.620;3.400;2023-02-26T17:27:43;13.30;59.60
46754;DHT22;32500;50.620;3.400;2023-02-26T17:30:19;13.30;59.60
46754;DHT22;32500;50.620;3.400;2023-02-26T17:32:44;13.20;59.90
46754;DHT22;32500;50.620;3.400;2023-02-26T17:35:15;13.10;60.00
46754;DHT22;32500;50.620;3.400;2023-02-26T17:37:41;13.10;59.90
46754;DHT22;32500;50.620;3.400;2023-02-26T17:40:20;13.10;60.00
46754;DHT22;32500;50.620;3.400;2023-02-26T17:42:48;13.10;60.00
46754;DHT22;32500;50.620;3.400;2023-02-26T17:45:15;13.10;60.00
46754;DHT22;32500;50.620;3.400;2023-02-26T17:47:41;13.10;60.20
46754;DHT22;32500;50.620;3.400;2023-02-26T17:50:25;13.00;60.40
46754;DHT22;32500;50.620;3.400;2023-02-26T17:52:51;13.00;60.50
46754;DHT22;32500;50.620;3.400;2023-02-26T17:55:17;12.90;60.40
46754;DHT22;32500;50.620;3.400;2023-02-26T17:57:42;12.90;60.40
46754;DHT22;32500;50.620;3.400;2023-02-26T18:00:10;12.90;60.40
46754;DHT22;32500;50.620;3.400;2023-02-26T18:02:39;12.90;60.70
46754;DHT22;32500;50.620;3.400;2023-02-26T18:05:05;12.90;60.60
46754;DHT22;32500;50.620;3.400;2023-02-26T18:07:31;12.90;60.90
46754;DHT22;32500;50.620;3.400;2023-02-26T18:09:56;12.80;60.80
46754;DHT22;32500;50.620;3.400;2023-02-26T18:12:22;12.90;60.70
46754;DHT22;32500;50.620;3.400;2023-02-26T18:14:48;12.80;61.20
46754;DHT22;32500;50.620;3.400;2023-02-26T18:17:22;12.80;60.70
46754;DHT22;32500;50.620;3.400;2023-02-26T18:19:48;12.80;60.80
46754;DHT22;32500;50.620;3.400;2023-02-26T18:22:15;12.80;60.60
46754;DHT22;32500;50.620;3.400;2023-02-26T18:24:43;12.80;60.90
46754;DHT22;32500;50.620;3.400;2023-02-26T18:27:13;12.80;60.80
46754;DHT22;32500;50.620;3.400;2023-02-26T18:29:39;12.70;60.70
46754;DHT22;32500;50.620;3.400;2023-02-26T18:32:05;12.70;60.70
46754;DHT22;32500;50.620;3.400;2023-02-26T18:34:30;12.70;60.90
46754;DHT22;32500;50.620;3.400;2023-02-26T18:36:56;12.80;61.00
46754;DHT22;32500;50.620;3.400;2023-02-26T18:39:22;12.70;61.00
46754;DHT22;32500;50.620;3.400;2023-02-26T18:41:52;12.70;61.00
46754;DHT22;32500;50.620;3.400;2023-02-26T18:44:17;12.70;60.90
46754;DHT22;32500;50.620;3.400;2023-02-26T18:46:43;12.70;60.90
46754;DHT22;32500;50.620;3.400;2023-02-26T18:49:17;12.70;60.90
46754;DHT22;32500;50.620;3.400;2023-02-26T18:51:43;12.70;61.10
46754;DHT22;32500;50.620;3.400;2023-02-26T18:54:09;12.70;60.90
46754;DHT22;32500;50.620;3.400;2023-02-26T18:56:34;12.70;60.90
46754;DHT22;32500;50.620;3.400;2023-02-26T18:59:01;12.70;61.00